sensor_id;sensor_type;location;lat;lon;timestamp;temperature;humidity
76203;DHT22;64985;46.364;17.008;2023-08-08T00:02:34;12.90;99.90
76203;DHT22;64985;46.364;17.008;2023-08-08T00:05:37;12.90;99.90
76203;DHT22;64985;46.364;17.008;2023-08-08T00:08:39;12.90;99.90
76203;DHT22;64985;46.364;17.008;2023-08-08T00:11:42;12.90;99.90
76203;DHT22;64985;46.364;17.008;2023-08-08T00:14:45;12.90;99.90
76203;DHT22;64985;46.364;17.008;2023-08-08T00:17:47;12.90;99.90
76203;DHT22;64985;46.364;17.008;2023-08-08T00:20:49;12.80;99.90
76203;DHT22;64985;46.364;17.008;2023-08-08T00:23:51;12.80;99.90
76203;DHT22;64985;46.364;17.008;2023-08-08T00:26:53;12.80;99.90
76203;DHT22;64985;46.364;17.008;2023-08-08T00:29:55;12.90;99.90
76203;DHT22;64985;46.364;17.008;2023-08-08T00:32:58;12.90;99.90
76203;DHT22;64985;46.364;17.008;2023-08-08T00:36:00;12.90;99.90
76203;DHT22;64985;46.364;17.008;2023-08-08T00:39:02;12.80;99.90
76203;DHT22;64985;46.364;17.008;2023-08-08T00:42:04;12.70;99.90
76203;DHT22;64985;46.364;17.008;2023-08-08T00:45:07;12.80;99.90
76203;DHT22;64985;46.364;17.008;2023-08-08T00:48:09;12.80;99.90
76203;DHT22;64985;46.364;17.008;2023-08-08T00:51:12;12.70;99.90
76203;DHT22;64985;46.364;17.008;2023-08-08T00:54:14;12.70;99.90
76203;DHT22;64985;46.364;17.008;2023-08-08T00:57:17;12.60;99.90
76203;DHT22;64985;46.364;17.008;2023-08-08T01:00:19;12.60;99.90
76203;DHT22;64985;46.364;17.008;2023-08-08T01:03:21;12.60;99.90
76203;DHT22;64985;46.364;17.008;2023-08-08T01:06:51;12.60;99.90
76203;DHT22;64985;46.364;17.008;2023-08-08T01:10:12;12.60;99.90
76203;DHT22;64985;46.364;17.008;2023-08-08T01:13:20;12.60;99.90
76203;DHT22;64985;46.364;17.008;2023-08-08T01:16:24;12.60;99.90
76203;DHT22;64985;46.364;17.008;2023-08-08T01:19:29;12.60;99.90
76203;DHT22;64985;46.364;17.008;2023-08-08T01:22:43;12.70;99.90
76203;DHT22;64985;46.364;17.008;2023-08-08T01:25:48;12.70;99.90
76203;DHT22;64985;46.364;17.008;2023-08-08T01:28:54;12.80;99.90
76203;DHT22;64985;46.364;17.008;2023-08-08T01:31:56;12.80;99.90
76203;DHT22;64985;46.364;17.008;2023-08-08T01:34:59;12.80;99.90
76203;DHT22;64985;46.364;17.008;2023-08-08T01:38:14;12.80;99.90
76203;DHT22;64985;46.364;17.008;2023-08-08T01:41:20;12.80;99.90
76203;DHT22;64985;46.364;17.008;2023-08-08T01:44:24;12.80;99.90
76203;DHT22;64985;46.364;17.008;2023-08-08T01:47:27;12.80;99.90
76203;DHT22;64985;46.364;17.008;2023-08-08T01:50:29;12.80;99.90
76203;DHT22;64985;46.364;17.008;2023-08-08T01:53:31;12.80;99.90
76203;DHT22;64985;46.364;17.008;2023-08-08T01:56:34;12.70;99.90
76203;DHT22;64985;46.364;17.008;2023-08-08T01:59:36;12.70;99.90
76203;DHT22;64985;46.364;17.008;2023-08-08T02:02:38;12.80;99.90
76203;DHT22;64985;46.364;17.008;2023-08-08T02:05:40;12.70;99.90
76203;DHT22;64985;46.364;17.008;2023-08-08T02:08:42;12.70;99.90
76203;DHT22;64985;46.364;17.008;2023-08-08T02:11:45;12.60;99.90
76203;DHT22;64985;46.364;17.008;2023-08-08T02:14:47;12.60;99.90
76203;DHT22;64985;46.364;17.008;2023-08-08T02:17:50;12.60;99.90
76203;DHT22;64985;46.364;17.008;2023-08-08T02:20:52;12.50;99.90
76203;DHT22;64985;46.364;17.008;2023-08-08T02:23:54;12.50;99.90
76203;DHT22;64985;46.364;17.008;2023-08-08T02:26:56;12.50;99.90
76203;DHT22;64985;46.364;17.008;2023-08-08T02:29:58;12.40;99.90
76203;DHT22;64985;46.364;17.008;2023-08-08T02:33:01;12.40;99.90
76203;DHT22;64985;46.364;17.008;2023-08-08T02:36:03;12.30;99.90
76203;DHT22;64985;46.364;17.008;2023-08-08T02:39:05;12.20;99.90
76203;DHT22;64985;46.364;17.008;2023-08-08T02:42:07;12.20;99.90
76203;DHT22;64985;46.364;17.008;2023-08-08T02:45:09;12.20;99.90
76203;DHT22;64985;46.364;17.008;2023-08-08T02:48:12;12.20;99.90
76203;DHT22;64985;46.364;17.008;2023-08-08T02:51:14;12.10;99.90
76203;DHT22;64985;46.364;17.008;2023-08-08T02:54:16;12.00;99.90
76203;DHT22;64985;46.364;17.008;2023-08-08T02:57:18;12.00;99.90
76203;DHT22;64985;46.364;17.008;2023-08-08T03:00:20;12.00;99.90
76203;DHT22;64985;46.364;17.008;2023-08-08T03:03:22;12.10;99.90
76203;DHT22;64985;46.364;17.008;2023-08-08T03:06:26;12.10;99.90
76203;DHT22;64985;46.364;17.008;2023-08-08T03:09:28;12.00;99.90
76203;DHT22;64985;46.364;17.008;2023-08-08T03:12:30;12.00;99.90
76203;DHT22;64985;46.364;17.008;2023-08-08T03:15:32;12.00;99.90
76203;DHT22;64985;46.364;17.008;2023-08-08T03:18:34;12.00;99.90
76203;DHT22;64985;46.364;17.008;2023-08-08T03:21:36;12.10;99.90
76203;DHT22;64985;46.364;17.008;2023-08-08T03:24:39;12.10;99.90
76203;DHT22;64985;46.364;17.008;2023-08-08T03:27:42;12.00;99.90
76203;DHT22;64985;46.364;17.008;2023-08-08T03:30:45;12.00;99.90
76203;DHT22;64985;46.364;17.008;2023-08-08T03:33:47;12.00;99.90
76203;DHT22;64985;46.364;17.008;2023-08-08T03:36:52;12.00;99.90
76203;DHT22;64985;46.364;17.008;2023-08-08T03:39:54;12.10;99.90
76203;DHT22;64985;46.364;17.008;2023-08-08T03:42:56;12.10;99.90
76203;DHT22;64985;46.364;17.008;2023-08-08T03:45:58;12.10;99.90
76203;DHT22;64985;46.364;17.008;2023-08-08T03:49:00;12.10;99.90
76203;DHT22;64985;46.364;17.008;2023-08-08T03:52:03;12.10;99.90
76203;DHT22;64985;46.364;17.008;2023-08-08T03:55:05;12.20;99.90
76203;DHT22;64985;46.364;17.008;2023-08-08T03:58:08;12.30;99.90
76203;DHT22;64985;46.364;17.008;2023-08-08T04:01:10;12.30;99.90
76203;DHT22;64985;46.364;17.008;2023-08-08T04:04:12;12.30;99.90
76203;DHT22;64985;46.364;17.008;2023-08-08T04:07:14;12.40;99.90
76203;DHT22;64985;46.364;17.008;2023-08-08T04:10:16;12.40;99.90
76203;DHT22;64985;46.364;17.008;2023-08-08T04:13:19;12.40;99.90
76203;DHT22;64985;46.364;17.008;2023-08-08T04:16:21;12.50;99.90
76203;DHT22;64985;46.364;17.008;2023-08-08T04:19:26;12.50;99.90
76203;DHT22;64985;46.364;17.008;2023-08-08T04:22:28;12.60;99.90
76203;DHT22;64985;46.364;17.008;2023-08-08T04:25:30;12.60;99.90
76203;DHT22;64985;46.364;17.008;2023-08-08T04:28:32;12.70;99.90
76203;DHT22;64985;46.364;17.008;2023-08-08T04:31:35;12.70;99.90
76203;DHT22;64985;46.364;17.008;2023-08-08T04:34:37;12.80;99.90
76203;DHT22;64985;46.364;17.008;2023-08-08T04:37:39;12.80;99.90
76203;DHT22;64985;46.364;17.008;2023-08-08T04:40:42;12.90;99.90
76203;DHT22;64985;46.364;17.008;2023-08-08T04:43:44;12.90;99.90
76203;DHT22;64985;46.364;17.008;2023-08-08T04:46:46;13.00;99.90
76203;DHT22;64985;46.364;17.008;2023-08-08T04:49:48;13.10;99.90
76203;DHT22;64985;46.364;17.008;2023-08-08T04:52:50;13.10;99.90
76203;DHT22;64985;46.364;17.008;2023-08-08T04:55:52;13.30;99.90
76203;DHT22;64985;46.364;17.008;2023-08-08T04:58:55;13.40;99.90
76203;DHT22;64985;46.364;17.008;2023-08-08T05:01:57;13.40;99.90
76203;DHT22;64985;46.364;17.008;2023-08-08T05:05:00;13.50;99.90
76203;DHT22;64985;46.364;17.008;2023-08-08T05:08:02;13.70;99.90
76203;DHT22;64985;46.364;17.008;2023-08-08T05:11:04;13.80;99.90
76203;DHT22;64985;46.364;17.008;2023-08-08T05:14:06;14.00;99.90
76203;DHT22;64985;46.364;17.008;2023-08-08T05:17:09;14.10;99.90
76203;DHT22;64985;46.364;17.008;2023-08-08T05:20:11;14.30;99.90
76203;DHT22;64985;46.364;17.008;2023-08-08T05:23:14;14.40;99.90
76203;DHT22;64985;46.364;17.008;2023-08-08T05:26:16;14.50;99.90
76203;DHT22;64985;46.364;17.008;2023-08-08T05:29:19;14.70;99.90
76203;DHT22;64985;46.364;17.008;2023-08-08T05:32:21;14.80;99.90
76203;DHT22;64985;46.364;17.008;2023-08-08T05:35:23;14.90;99.90
76203;DHT22;64985;46.364;17.008;2023-08-08T05:38:25;14.90;99.90
76203;DHT22;64985;46.364;17.008;2023-08-08T05:41:27;14.90;99.90
76203;DHT22;64985;46.364;17.008;2023-08-08T05:44:30;15.10;99.90
76203;DHT22;64985;46.364;17.008;2023-08-08T05:47:32;15.20;99.90
76203;DHT22;64985;46.364;17.008;2023-08-08T05:50:35;15.40;99.90
76203;DHT22;64985;46.364;17.008;2023-08-08T05:53:39;15.50;99.90
76203;DHT22;64985;46.364;17.008;2023-08-08T05:56:41;15.70;99.90
76203;DHT22;64985;46.364;17.008;2023-08-08T05:59:43;15.80;99.90
76203;DHT22;64985;46.364;17.008;2023-08-08T06:02:46;15.90;99.90
76203;DHT22;64985;46.364;17.008;2023-08-08T06:05:48;16.20;99.90
76203;DHT22;64985;46.364;17.008;2023-08-08T06:08:51;16.60;99.90
76203;DHT22;64985;46.364;17.008;2023-08-08T06:11:53;17.10;99.90
76203;DHT22;64985;46.364;17.008;2023-08-08T06:14:55;17.60;99.90
76203;DHT22;64985;46.364;17.008;2023-08-08T06:17:57;18.10;99.90
76203;DHT22;64985;46.364;17.008;2023-08-08T06:21:00;18.60;99.90
76203;DHT22;64985;46.364;17.008;2023-08-08T06:24:02;19.10;97.50
76203;DHT22;64985;46.364;17.008;2023-08-08T06:27:04;19.60;97.00
76203;DHT22;64985;46.364;17.008;2023-08-08T06:30:07;20.00;92.00
76203;DHT22;64985;46.364;17.008;2023-08-08T06:33:10;20.40;84.30
76203;DHT22;64985;46.364;17.008;2023-08-08T06:36:12;20.30;78.30
76203;DHT22;64985;46.364;17.008;2023-08-08T06:39:15;20.20;75.20
76203;DHT22;64985;46.364;17.008;2023-08-08T06:42:17;20.60;71.50
76203;DHT22;64985;46.364;17.008;2023-08-08T06:45:19;21.10;66.60
76203;DHT22;64985;46.364;17.008;2023-08-08T06:48:21;21.40;63.80
76203;DHT22;64985;46.364;17.008;2023-08-08T06:51:24;21.30;65.50
76203;DHT22;64985;46.364;17.008;2023-08-08T06:54:27;21.00;63.50
76203;DHT22;64985;46.364;17.008;2023-08-08T06:57:33;21.00;63.70
76203;DHT22;64985;46.364;17.008;2023-08-08T07:00:35;21.20;67.50
76203;DHT22;64985;46.364;17.008;2023-08-08T07:03:37;21.10;63.00
76203;DHT22;64985;46.364;17.008;2023-08-08T07:06:39;20.90;68.30
76203;DHT22;64985;46.364;17.008;2023-08-08T07:09:42;21.00;73.00
76203;DHT22;64985;46.364;17.008;2023-08-08T07:12:45;21.20;68.10
76203;DHT22;64985;46.364;17.008;2023-08-08T07:15:47;21.90;61.10
76203;DHT22;64985;46.364;17.008;2023-08-08T07:18:49;22.70;61.10
76203;DHT22;64985;46.364;17.008;2023-08-08T07:21:55;22.80;59.50
76203;DHT22;64985;46.364;17.008;2023-08-08T07:24:57;22.20;58.60
76203;DHT22;64985;46.364;17.008;2023-08-08T07:27:59;22.30;55.60
76203;DHT22;64985;46.364;17.008;2023-08-08T07:31:01;22.90;60.00
76203;DHT22;64985;46.364;17.008;2023-08-08T07:34:03;23.50;62.70
76203;DHT22;64985;46.364;17.008;2023-08-08T07:37:05;23.50;60.00
76203;DHT22;64985;46.364;17.008;2023-08-08T07:40:18;23.60;54.00
76203;DHT22;64985;46.364;17.008;2023-08-08T07:43:20;23.30;54.30
76203;DHT22;64985;46.364;17.008;2023-08-08T07:46:23;23.40;52.00
76203;DHT22;64985;46.364;17.008;2023-08-08T07:49:25;23.00;54.90
76203;DHT22;64985;46.364;17.008;2023-08-08T07:52:27;23.20;50.40
76203;DHT22;64985;46.364;17.008;2023-08-08T07:55:29;23.40;57.60
76203;DHT22;64985;46.364;17.008;2023-08-08T07:58:32;23.20;53.00
76203;DHT22;64985;46.364;17.008;2023-08-08T08:01:34;23.10;60.00
76203;DHT22;64985;46.364;17.008;2023-08-08T08:04:36;22.80;55.40
76203;DHT22;64985;46.364;17.008;2023-08-08T08:07:39;22.80;55.80
76203;DHT22;64985;46.364;17.008;2023-08-08T08:10:41;23.10;53.90
76203;DHT22;64985;46.364;17.008;2023-08-08T08:13:43;23.60;54.50
76203;DHT22;64985;46.364;17.008;2023-08-08T08:16:45;23.90;53.10
76203;DHT22;64985;46.364;17.008;2023-08-08T08:19:48;24.00;50.20
76203;DHT22;64985;46.364;17.008;2023-08-08T08:22:50;23.60;56.00
76203;DHT22;64985;46.364;17.008;2023-08-08T08:25:52;23.50;55.90
76203;DHT22;64985;46.364;17.008;2023-08-08T08:28:54;23.60;54.90
76203;DHT22;64985;46.364;17.008;2023-08-08T08:31:56;24.70;54.00
76203;DHT22;64985;46.364;17.008;2023-08-08T08:35:00;23.80;55.60
76203;DHT22;64985;46.364;17.008;2023-08-08T08:38:03;23.10;55.10
76203;DHT22;64985;46.364;17.008;2023-08-08T08:41:05;23.20;50.40
76203;DHT22;64985;46.364;17.008;2023-08-08T08:44:07;23.10;53.30
76203;DHT22;64985;46.364;17.008;2023-08-08T08:47:12;22.80;54.70
76203;DHT22;64985;46.364;17.008;2023-08-08T08:50:18;23.20;54.50
76203;DHT22;64985;46.364;17.008;2023-08-08T08:53:20;23.20;55.70
76203;DHT22;64985;46.364;17.008;2023-08-08T08:56:24;23.70;57.20
76203;DHT22;64985;46.364;17.008;2023-08-08T08:59:26;24.00;51.20
76203;DHT22;64985;46.364;17.008;2023-08-08T09:02:29;24.60;60.10
76203;DHT22;64985;46.364;17.008;2023-08-08T09:05:31;25.20;48.50
76203;DHT22;64985;46.364;17.008;2023-08-08T09:08:34;25.70;54.10
76203;DHT22;64985;46.364;17.008;2023-08-08T09:11:37;25.00;52.40
76203;DHT22;64985;46.364;17.008;2023-08-08T09:14:40;24.80;51.60
76203;DHT22;64985;46.364;17.008;2023-08-08T09:17:44;23.80;56.10
76203;DHT22;64985;46.364;17.008;2023-08-08T09:20:50;23.00;50.60
76203;DHT22;64985;46.364;17.008;2023-08-08T09:23:52;22.50;48.80
76203;DHT22;64985;46.364;17.008;2023-08-08T09:26:54;23.10;50.40
76203;DHT22;64985;46.364;17.008;2023-08-08T09:29:57;23.80;51.60
76203;DHT22;64985;46.364;17.008;2023-08-08T09:33:00;24.30;48.30
76203;DHT22;64985;46.364;17.008;2023-08-08T09:36:03;24.80;47.80
76203;DHT22;64985;46.364;17.008;2023-08-08T09:39:05;24.70;49.10
76203;DHT22;64985;46.364;17.008;2023-08-08T09:42:08;25.80;47.10
76203;DHT22;64985;46.364;17.008;2023-08-08T09:45:13;25.80;48.00
76203;DHT22;64985;46.364;17.008;2023-08-08T09:48:16;25.60;52.60
76203;DHT22;64985;46.364;17.008;2023-08-08T09:51:20;26.10;51.40
76203;DHT22;64985;46.364;17.008;2023-08-08T09:54:23;25.90;48.30
76203;DHT22;64985;46.364;17.008;2023-08-08T09:57:27;25.00;48.80
76203;DHT22;64985;46.364;17.008;2023-08-08T10:00:30;24.90;49.10
76203;DHT22;64985;46.364;17.008;2023-08-08T10:03:33;25.20;53.90
76203;DHT22;64985;46.364;17.008;2023-08-08T10:06:35;26.20;47.40
76203;DHT22;64985;46.364;17.008;2023-08-08T10:09:38;26.60;48.40
76203;DHT22;64985;46.364;17.008;2023-08-08T10:12:41;26.10;52.50
76203;DHT22;64985;46.364;17.008;2023-08-08T10:15:44;26.20;46.30
76203;DHT22;64985;46.364;17.008;2023-08-08T10:19:03;25.70;47.60
76203;DHT22;64985;46.364;17.008;2023-08-08T10:22:07;25.00;48.10
76203;DHT22;64985;46.364;17.008;2023-08-08T10:25:19;25.60;49.00
76203;DHT22;64985;46.364;17.008;2023-08-08T10:28:21;25.60;48.00
76203;DHT22;64985;46.364;17.008;2023-08-08T10:31:33;25.90;45.70
76203;DHT22;64985;46.364;17.008;2023-08-08T10:37:55;26.90;48.60
76203;DHT22;64985;46.364;17.008;2023-08-08T10:40:58;26.30;48.20
76203;DHT22;64985;46.364;17.008;2023-08-08T10:44:01;26.00;48.50
76203;DHT22;64985;46.364;17.008;2023-08-08T10:47:03;26.00;51.50
76203;DHT22;64985;46.364;17.008;2023-08-08T10:53:14;25.60;45.00
76203;DHT22;64985;46.364;17.008;2023-08-08T10:56:18;25.40;48.10
76203;DHT22;64985;46.364;17.008;2023-08-08T10:59:37;25.10;50.70
76203;DHT22;64985;46.364;17.008;2023-08-08T11:02:40;25.10;51.10
76203;DHT22;64985;46.364;17.008;2023-08-08T11:05:46;25.00;49.70
76203;DHT22;64985;46.364;17.008;2023-08-08T11:08:52;25.00;49.50
76203;DHT22;64985;46.364;17.008;2023-08-08T11:11:56;25.30;49.30
76203;DHT22;64985;46.364;17.008;2023-08-08T11:14:59;25.60;50.00
76203;DHT22;64985;46.364;17.008;2023-08-08T11:18:02;26.10;46.50
76203;DHT22;64985;46.364;17.008;2023-08-08T11:21:12;26.10;46.30
76203;DHT22;64985;46.364;17.008;2023-08-08T11:24:20;27.10;45.80
76203;DHT22;64985;46.364;17.008;2023-08-08T11:27:24;26.10;46.70
76203;DHT22;64985;46.364;17.008;2023-08-08T11:30:33;25.30;49.50
76203;DHT22;64985;46.364;17.008;2023-08-08T11:33:35;25.30;48.50
76203;DHT22;64985;46.364;17.008;2023-08-08T11:36:38;25.70;46.00
76203;DHT22;64985;46.364;17.008;2023-08-08T11:39:40;27.00;44.60
76203;DHT22;64985;46.364;17.008;2023-08-08T11:42:43;26.60;44.80
76203;DHT22;64985;46.364;17.008;2023-08-08T11:45:48;27.10;46.00
76203;DHT22;64985;46.364;17.008;2023-08-08T11:48:51;26.40;47.50
76203;DHT22;64985;46.364;17.008;2023-08-08T11:51:56;25.80;49.30
76203;DHT22;64985;46.364;17.008;2023-08-08T11:54:59;25.50;50.00
76203;DHT22;64985;46.364;17.008;2023-08-08T11:58:04;25.70;48.70
76203;DHT22;64985;46.364;17.008;2023-08-08T12:01:09;25.70;53.50
76203;DHT22;64985;46.364;17.008;2023-08-08T12:04:11;26.30;51.60
76203;DHT22;64985;46.364;17.008;2023-08-08T12:07:13;26.60;49.30
76203;DHT22;64985;46.364;17.008;2023-08-08T12:10:20;26.30;45.80
76203;DHT22;64985;46.364;17.008;2023-08-08T12:13:24;25.90;45.00
76203;DHT22;64985;46.364;17.008;2023-08-08T12:16:29;25.60;46.50
76203;DHT22;64985;46.364;17.008;2023-08-08T12:19:35;26.20;50.50
76203;DHT22;64985;46.364;17.008;2023-08-08T12:22:37;26.50;43.60
76203;DHT22;64985;46.364;17.008;2023-08-08T12:25:41;26.70;47.10
76203;DHT22;64985;46.364;17.008;2023-08-08T12:28:44;26.20;45.00
76203;DHT22;64985;46.364;17.008;2023-08-08T12:31:46;26.50;44.30
76203;DHT22;64985;46.364;17.008;2023-08-08T12:34:48;26.50;48.50
76203;DHT22;64985;46.364;17.008;2023-08-08T12:37:51;25.80;50.40
76203;DHT22;64985;46.364;17.008;2023-08-08T12:40:53;25.70;47.40
76203;DHT22;64985;46.364;17.008;2023-08-08T12:43:55;25.90;49.50
76203;DHT22;64985;46.364;17.008;2023-08-08T12:46:57;26.10;53.40
76203;DHT22;64985;46.364;17.008;2023-08-08T12:50:00;25.90;48.60
76203;DHT22;64985;46.364;17.008;2023-08-08T12:53:02;25.80;48.60
76203;DHT22;64985;46.364;17.008;2023-08-08T12:56:05;26.30;44.30
76203;DHT22;64985;46.364;17.008;2023-08-08T12:59:09;26.50;47.60
76203;DHT22;64985;46.364;17.008;2023-08-08T13:02:11;26.00;45.90
76203;DHT22;64985;46.364;17.008;2023-08-08T13:05:13;26.00;48.60
76203;DHT22;64985;46.364;17.008;2023-08-08T13:08:15;25.60;51.00
76203;DHT22;64985;46.364;17.008;2023-08-08T13:11:18;25.60;48.90
76203;DHT22;64985;46.364;17.008;2023-08-08T13:14:20;26.20;46.90
76203;DHT22;64985;46.364;17.008;2023-08-08T13:17:22;26.60;46.70
76203;DHT22;64985;46.364;17.008;2023-08-08T13:20:27;25.80;46.50
76203;DHT22;64985;46.364;17.008;2023-08-08T13:23:29;26.20;47.50
76203;DHT22;64985;46.364;17.008;2023-08-08T13:26:31;26.10;54.70
76203;DHT22;64985;46.364;17.008;2023-08-08T13:29:33;26.20;46.60
76203;DHT22;64985;46.364;17.008;2023-08-08T13:32:35;26.20;49.70
76203;DHT22;64985;46.364;17.008;2023-08-08T13:35:37;26.40;44.40
76203;DHT22;64985;46.364;17.008;2023-08-08T13:38:40;26.00;47.90
76203;DHT22;64985;46.364;17.008;2023-08-08T13:41:42;26.00;48.50
76203;DHT22;64985;46.364;17.008;2023-08-08T13:44:44;25.80;47.40
76203;DHT22;64985;46.364;17.008;2023-08-08T13:47:47;25.20;47.80
76203;DHT22;64985;46.364;17.008;2023-08-08T13:50:50;25.30;50.80
76203;DHT22;64985;46.364;17.008;2023-08-08T13:53:53;25.60;54.90
76203;DHT22;64985;46.364;17.008;2023-08-08T13:56:55;25.60;49.90
76203;DHT22;64985;46.364;17.008;2023-08-08T13:59:57;25.20;53.60
76203;DHT22;64985;46.364;17.008;2023-08-08T14:03:00;25.70;51.40
76203;DHT22;64985;46.364;17.008;2023-08-08T14:06:03;25.80;53.10
76203;DHT22;64985;46.364;17.008;2023-08-08T14:09:05;25.80;50.50
76203;DHT22;64985;46.364;17.008;2023-08-08T14:12:07;25.70;50.90
76203;DHT22;64985;46.364;17.008;2023-08-08T14:15:09;25.50;54.20
76203;DHT22;64985;46.364;17.008;2023-08-08T14:18:11;25.10;50.40
76203;DHT22;64985;46.364;17.008;2023-08-08T14:21:15;24.50;53.60
76203;DHT22;64985;46.364;17.008;2023-08-08T14:24:17;24.00;57.50
76203;DHT22;64985;46.364;17.008;2023-08-08T14:27:19;24.40;54.60
76203;DHT22;64985;46.364;17.008;2023-08-08T14:30:21;24.50;53.90
76203;DHT22;64985;46.364;17.008;2023-08-08T14:33:23;25.10;54.70
76203;DHT22;64985;46.364;17.008;2023-08-08T14:36:25;25.10;56.00
76203;DHT22;64985;46.364;17.008;2023-08-08T14:39:28;24.20;51.70
76203;DHT22;64985;46.364;17.008;2023-08-08T14:42:30;23.60;54.30
76203;DHT22;64985;46.364;17.008;2023-08-08T14:45:32;23.60;55.10
76203;DHT22;64985;46.364;17.008;2023-08-08T14:48:35;24.10;58.60
76203;DHT22;64985;46.364;17.008;2023-08-08T14:51:37;24.50;57.70
76203;DHT22;64985;46.364;17.008;2023-08-08T14:54:39;24.70;52.80
76203;DHT22;64985;46.364;17.008;2023-08-08T14:57:41;24.90;51.60
76203;DHT22;64985;46.364;17.008;2023-08-08T15:00:43;24.90;53.30
76203;DHT22;64985;46.364;17.008;2023-08-08T15:03:46;24.80;51.50
76203;DHT22;64985;46.364;17.008;2023-08-08T15:06:48;24.70;56.00
76203;DHT22;64985;46.364;17.008;2023-08-08T15:09:50;24.80;57.90
76203;DHT22;64985;46.364;17.008;2023-08-08T15:12:53;24.60;51.50
76203;DHT22;64985;46.364;17.008;2023-08-08T15:15:55;24.40;56.70
76203;DHT22;64985;46.364;17.008;2023-08-08T15:18:57;24.50;54.20
76203;DHT22;64985;46.364;17.008;2023-08-08T15:21:59;24.40;53.40
76203;DHT22;64985;46.364;17.008;2023-08-08T15:25:02;24.00;53.40
76203;DHT22;64985;46.364;17.008;2023-08-08T15:28:05;23.80;53.00
76203;DHT22;64985;46.364;17.008;2023-08-08T15:31:08;24.00;54.20
76203;DHT22;64985;46.364;17.008;2023-08-08T15:34:10;24.40;54.60
76203;DHT22;64985;46.364;17.008;2023-08-08T15:37:12;24.90;52.90
76203;DHT22;64985;46.364;17.008;2023-08-08T15:40:15;25.30;51.40
76203;DHT22;64985;46.364;17.008;2023-08-08T15:43:17;25.60;52.00
76203;DHT22;64985;46.364;17.008;2023-08-08T15:46:22;25.40;51.80
76203;DHT22;64985;46.364;17.008;2023-08-08T15:49:24;25.00;52.60
76203;DHT22;64985;46.364;17.008;2023-08-08T15:52:26;25.00;57.20
76203;DHT22;64985;46.364;17.008;2023-08-08T15:55:28;25.30;52.70
76203;DHT22;64985;46.364;17.008;2023-08-08T15:58:33;25.00;53.80
76203;DHT22;64985;46.364;17.008;2023-08-08T16:01:35;24.80;53.20
76203;DHT22;64985;46.364;17.008;2023-08-08T16:04:38;24.40;54.40
76203;DHT22;64985;46.364;17.008;2023-08-08T16:07:40;23.90;52.40
76203;DHT22;64985;46.364;17.008;2023-08-08T16:10:42;23.80;55.70
76203;DHT22;64985;46.364;17.008;2023-08-08T16:13:44;23.60;56.20
76203;DHT22;64985;46.364;17.008;2023-08-08T16:16:47;23.40;57.90
76203;DHT22;64985;46.364;17.008;2023-08-08T16:19:49;23.30;59.00
76203;DHT22;64985;46.364;17.008;2023-08-08T16:22:51;23.30;56.50
76203;DHT22;64985;46.364;17.008;2023-08-08T16:25:53;23.10;57.00
76203;DHT22;64985;46.364;17.008;2023-08-08T16:28:56;22.80;59.70
76203;DHT22;64985;46.364;17.008;2023-08-08T16:31:58;22.40;58.10
76203;DHT22;64985;46.364;17.008;2023-08-08T16:35:00;22.10;60.70
76203;DHT22;64985;46.364;17.008;2023-08-08T16:38:02;21.90;58.50
76203;DHT22;64985;46.364;17.008;2023-08-08T16:41:05;21.80;57.30
76203;DHT22;64985;46.364;17.008;2023-08-08T16:44:08;21.60;60.20
76203;DHT22;64985;46.364;17.008;2023-08-08T16:47:10;21.50;64.00
76203;DHT22;64985;46.364;17.008;2023-08-08T16:50:12;21.40;72.30
76203;DHT22;64985;46.364;17.008;2023-08-08T16:53:15;21.40;75.00
76203;DHT22;64985;46.364;17.008;2023-08-08T16:56:18;21.40;82.70
76203;DHT22;64985;46.364;17.008;2023-08-08T16:59:21;21.40;82.70
76203;DHT22;64985;46.364;17.008;2023-08-08T17:02:23;21.30;84.80
76203;DHT22;64985;46.364;17.008;2023-08-08T17:05:25;21.20;89.50
76203;DHT22;64985;46.364;17.008;2023-08-08T17:08:28;21.10;90.20
76203;DHT22;64985;46.364;17.008;2023-08-08T17:11:31;21.10;87.70
76203;DHT22;64985;46.364;17.008;2023-08-08T17:14:33;21.00;85.00
76203;DHT22;64985;46.364;17.008;2023-08-08T17:17:36;21.10;90.70
76203;DHT22;64985;46.364;17.008;2023-08-08T17:20:42;21.00;88.80
76203;DHT22;64985;46.364;17.008;2023-08-08T17:23:44;20.80;88.50
76203;DHT22;64985;46.364;17.008;2023-08-08T17:26:47;20.70;89.90
76203;DHT22;64985;46.364;17.008;2023-08-08T17:29:50;20.60;89.60
76203;DHT22;64985;46.364;17.008;2023-08-08T17:32:53;20.40;92.90
76203;DHT22;64985;46.364;17.008;2023-08-08T17:35:55;20.20;97.40
76203;DHT22;64985;46.364;17.008;2023-08-08T17:38:58;20.20;98.80
76203;DHT22;64985;46.364;17.008;2023-08-08T17:42:01;20.10;94.80
76203;DHT22;64985;46.364;17.008;2023-08-08T17:45:05;19.90;95.60
76203;DHT22;64985;46.364;17.008;2023-08-08T17:48:07;19.60;95.60
76203;DHT22;64985;46.364;17.008;2023-08-08T17:51:10;19.30;99.40
76203;DHT22;64985;46.364;17.008;2023-08-08T17:54:12;19.20;99.90
76203;DHT22;64985;46.364;17.008;2023-08-08T17:57:15;19.00;99.90
76203;DHT22;64985;46.364;17.008;2023-08-08T18:00:17;18.80;99.90
76203;DHT22;64985;46.364;17.008;2023-08-08T18:03:20;18.50;99.90
76203;DHT22;64985;46.364;17.008;2023-08-08T18:06:23;18.30;99.90
76203;DHT22;64985;46.364;17.008;2023-08-08T18:09:26;18.00;99.90
76203;DHT22;64985;46.364;17.008;2023-08-08T18:12:32;17.90;99.90
76203;DHT22;64985;46.364;17.008;2023-08-08T18:15:36;17.60;99.90
76203;DHT22;64985;46.364;17.008;2023-08-08T18:18:39;17.40;99.90
76203;DHT22;64985;46.364;17.008;2023-08-08T18:21:43;17.10;99.90
76203;DHT22;64985;46.364;17.008;2023-08-08T18:24:48;16.90;99.90
76203;DHT22;64985;46.364;17.008;2023-08-08T18:27:53;16.70;99.90
76203;DHT22;64985;46.364;17.008;2023-08-08T18:30:57;16.60;99.90
76203;DHT22;64985;46.364;17.008;2023-08-08T18:34:02;16.50;99.90
76203;DHT22;64985;46.364;17.008;2023-08-08T18:37:08;16.30;99.90
76203;DHT22;64985;46.364;17.008;2023-08-08T18:40:14;16.10;99.90
76203;DHT22;64985;46.364;17.008;2023-08-08T18:43:23;15.90;99.90
76203;DHT22;64985;46.364;17.008;2023-08-08T18:46:27;15.60;99.90
76203;DHT22;64985;46.364;17.008;2023-08-08T18:49:30;15.50;99.90
76203;DHT22;64985;46.364;17.008;2023-08-08T18:52:32;15.40;99.90
76203;DHT22;64985;46.364;17.008;2023-08-08T18:55:35;15.30;99.90
76203;DHT22;64985;46.364;17.008;2023-08-08T18:58:39;15.10;99.90
76203;DHT22;64985;46.364;17.008;2023-08-08T19:01:43;15.00;99.90
76203;DHT22;64985;46.364;17.008;2023-08-08T19:04:46;14.90;99.90